Terminal Aerodrome Forecast
Issued by NWS

Home | Current Version | Previous Version | Graphics & Text | Print | Product List | Glossary Off
Versions: 1 2 3 4 5 6 7 8 9 10 11 12

000
FTUS43 KDDC 301201 RRA
TAFGCK
TAF
KGCK 301201Z 3012/0112 30012KT P6SM SCT200 WS020/33040KT
     FM301300 31012KT P6SM FEW200
     FM301600 31016G25KT P6SM FEW250
     FM302300 30012KT P6SM SKC=

USA.gov is the U.S. government's official web portal to all federal, state and local government web resources and services.